sensor_id;sensor_type;location;lat;lon;timestamp;P1;durP1;ratioP1;P2;durP2;ratioP2
40669;SDS011;26355;45.528;9.234;2023-03-31T00:01:58;11.95;;;3.00;;
40669;SDS011;26355;45.528;9.234;2023-03-31T00:06:52;13.90;;;2.65;;
40669;SDS011;26355;45.528;9.234;2023-03-31T00:09:18;12.70;;;2.92;;
40669;SDS011;26355;45.528;9.234;2023-03-31T00:11:46;17.92;;;3.85;;
40669;SDS011;26355;45.528;9.234;2023-03-31T00:14:13;12.82;;;2.60;;
40669;SDS011;26355;45.528;9.234;2023-03-31T00:16:41;16.05;;;3.10;;
40669;SDS011;26355;45.528;9.234;2023-03-31T00:19:08;14.65;;;3.30;;
40669;SDS011;26355;45.528;9.234;2023-03-31T00:21:42;13.88;;;2.97;;
40669;SDS011;26355;45.528;9.234;2023-03-31T00:24:09;16.58;;;3.78;;
40669;SDS011;26355;45.528;9.234;2023-03-31T00:26:36;13.98;;;3.08;;
40669;SDS011;26355;45.528;9.234;2023-03-31T00:29:03;14.93;;;3.20;;
40669;SDS011;26355;45.528;9.234;2023-03-31T00:31:30;13.05;;;2.92;;
40669;SDS011;26355;45.528;9.234;2023-03-31T00:33:56;16.88;;;3.13;;
40669;SDS011;26355;45.528;9.234;2023-03-31T00:36:22;14.35;;;3.20;;
40669;SDS011;26355;45.528;9.234;2023-03-31T00:38:58;12.13;;;2.70;;
40669;SDS011;26355;45.528;9.234;2023-03-31T00:41:32;17.60;;;3.78;;
40669;SDS011;26355;45.528;9.234;2023-03-31T00:51:53;15.80;;;2.90;;
40669;SDS011;26355;45.528;9.234;2023-03-31T00:54:22;13.43;;;2.90;;
40669;SDS011;26355;45.528;9.234;2023-03-31T00:56:50;13.07;;;2.70;;
40669;SDS011;26355;45.528;9.234;2023-03-31T00:59:19;13.20;;;2.70;;
40669;SDS011;26355;45.528;9.234;2023-03-31T01:02:05;14.27;;;3.10;;
40669;SDS011;26355;45.528;9.234;2023-03-31T01:04:33;13.73;;;3.33;;
40669;SDS011;26355;45.528;9.234;2023-03-31T01:07:09;10.85;;;2.45;;
40669;SDS011;26355;45.528;9.234;2023-03-31T01:09:56;10.65;;;2.65;;
40669;SDS011;26355;45.528;9.234;2023-03-31T01:12:24;15.98;;;3.33;;
40669;SDS011;26355;45.528;9.234;2023-03-31T01:14:51;15.20;;;2.78;;
40669;SDS011;26355;45.528;9.234;2023-03-31T01:17:19;9.73;;;2.42;;
40669;SDS011;26355;45.528;9.234;2023-03-31T01:31:20;14.57;;;2.80;;
40669;SDS011;26355;45.528;9.234;2023-03-31T01:37:42;13.95;;;2.83;;
40669;SDS011;26355;45.528;9.234;2023-03-31T01:45:25;17.80;;;2.72;;
40669;SDS011;26355;45.528;9.234;2023-03-31T01:50:45;13.80;;;2.83;;
40669;SDS011;26355;45.528;9.234;2023-03-31T01:53:25;18.40;;;3.38;;
40669;SDS011;26355;45.528;9.234;2023-03-31T01:59:14;14.50;;;3.03;;
40669;SDS011;26355;45.528;9.234;2023-03-31T02:01:48;15.32;;;2.75;;
40669;SDS011;26355;45.528;9.234;2023-03-31T02:04:23;16.50;;;2.95;;
40669;SDS011;26355;45.528;9.234;2023-03-31T02:06:58;13.88;;;2.97;;
40669;SDS011;26355;45.528;9.234;2023-03-31T02:09:29;12.57;;;2.28;;
40669;SDS011;26355;45.528;9.234;2023-03-31T02:11:58;9.85;;;2.65;;
40669;SDS011;26355;45.528;9.234;2023-03-31T02:14:28;14.57;;;2.90;;
40669;SDS011;26355;45.528;9.234;2023-03-31T02:16:56;14.30;;;2.83;;
40669;SDS011;26355;45.528;9.234;2023-03-31T02:19:27;11.90;;;2.67;;
40669;SDS011;26355;45.528;9.234;2023-03-31T02:21:56;11.35;;;2.55;;
40669;SDS011;26355;45.528;9.234;2023-03-31T02:24:23;10.40;;;2.70;;
40669;SDS011;26355;45.528;9.234;2023-03-31T02:26:56;14.30;;;2.78;;
40669;SDS011;26355;45.528;9.234;2023-03-31T02:29:29;11.43;;;2.65;;
40669;SDS011;26355;45.528;9.234;2023-03-31T02:31:57;12.30;;;2.50;;
40669;SDS011;26355;45.528;9.234;2023-03-31T02:34:31;9.60;;;2.40;;
40669;SDS011;26355;45.528;9.234;2023-03-31T02:36:56;12.82;;;2.58;;
40669;SDS011;26355;45.528;9.234;2023-03-31T02:39:23;14.25;;;3.63;;
40669;SDS011;26355;45.528;9.234;2023-03-31T02:41:52;11.15;;;2.60;;
40669;SDS011;26355;45.528;9.234;2023-03-31T02:44:18;11.65;;;2.60;;
40669;SDS011;26355;45.528;9.234;2023-03-31T02:46:45;11.13;;;2.20;;
40669;SDS011;26355;45.528;9.234;2023-03-31T02:49:11;14.37;;;2.50;;
40669;SDS011;26355;45.528;9.234;2023-03-31T02:54:43;12.02;;;2.58;;
40669;SDS011;26355;45.528;9.234;2023-03-31T03:11:35;12.40;;;2.45;;
40669;SDS011;26355;45.528;9.234;2023-03-31T03:14:17;10.10;;;2.33;;
40669;SDS011;26355;45.528;9.234;2023-03-31T03:19:43;13.13;;;2.42;;
40669;SDS011;26355;45.528;9.234;2023-03-31T03:22:14;14.60;;;2.95;;
40669;SDS011;26355;45.528;9.234;2023-03-31T03:24:40;11.55;;;2.50;;
40669;SDS011;26355;45.528;9.234;2023-03-31T03:27:06;12.00;;;2.53;;
40669;SDS011;26355;45.528;9.234;2023-03-31T03:29:32;12.25;;;2.72;;
40669;SDS011;26355;45.528;9.234;2023-03-31T03:31:57;11.40;;;2.65;;
40669;SDS011;26355;45.528;9.234;2023-03-31T03:34:23;12.50;;;2.20;;
40669;SDS011;26355;45.528;9.234;2023-03-31T03:36:49;12.25;;;2.10;;
40669;SDS011;26355;45.528;9.234;2023-03-31T03:39:15;12.15;;;2.60;;
40669;SDS011;26355;45.528;9.234;2023-03-31T03:41:41;13.40;;;2.60;;
40669;SDS011;26355;45.528;9.234;2023-03-31T03:44:06;12.77;;;2.63;;
40669;SDS011;26355;45.528;9.234;2023-03-31T03:46:32;12.55;;;2.40;;
40669;SDS011;26355;45.528;9.234;2023-03-31T03:48:58;12.80;;;2.63;;
40669;SDS011;26355;45.528;9.234;2023-03-31T03:51:23;11.15;;;2.20;;
40669;SDS011;26355;45.528;9.234;2023-03-31T03:53:49;11.45;;;2.58;;
40669;SDS011;26355;45.528;9.234;2023-03-31T03:56:14;11.77;;;3.13;;
40669;SDS011;26355;45.528;9.234;2023-03-31T03:58:40;11.50;;;2.60;;
40669;SDS011;26355;45.528;9.234;2023-03-31T04:01:06;14.02;;;2.80;;
40669;SDS011;26355;45.528;9.234;2023-03-31T04:03:31;15.40;;;2.58;;
40669;SDS011;26355;45.528;9.234;2023-03-31T04:05:57;14.52;;;2.90;;
40669;SDS011;26355;45.528;9.234;2023-03-31T04:08:22;13.38;;;2.90;;
40669;SDS011;26355;45.528;9.234;2023-03-31T04:10:48;13.57;;;2.60;;
40669;SDS011;26355;45.528;9.234;2023-03-31T04:13:14;12.40;;;2.60;;
40669;SDS011;26355;45.528;9.234;2023-03-31T04:15:41;13.67;;;2.27;;
40669;SDS011;26355;45.528;9.234;2023-03-31T04:18:07;15.95;;;2.60;;
40669;SDS011;26355;45.528;9.234;2023-03-31T04:23:03;12.48;;;2.80;;
40669;SDS011;26355;45.528;9.234;2023-03-31T04:25:33;14.15;;;3.17;;
40669;SDS011;26355;45.528;9.234;2023-03-31T04:28:03;15.05;;;3.05;;
40669;SDS011;26355;45.528;9.234;2023-03-31T04:30:31;13.02;;;2.67;;
40669;SDS011;26355;45.528;9.234;2023-03-31T04:33:15;13.90;;;3.20;;
40669;SDS011;26355;45.528;9.234;2023-03-31T04:35:41;18.58;;;3.03;;
40669;SDS011;26355;45.528;9.234;2023-03-31T04:38:13;12.27;;;2.60;;
40669;SDS011;26355;45.528;9.234;2023-03-31T04:40:46;12.82;;;2.70;;
40669;SDS011;26355;45.528;9.234;2023-03-31T04:43:14;16.73;;;4.05;;
40669;SDS011;26355;45.528;9.234;2023-03-31T04:45:40;12.80;;;2.80;;
40669;SDS011;26355;45.528;9.234;2023-03-31T04:48:06;11.23;;;2.70;;
40669;SDS011;26355;45.528;9.234;2023-03-31T04:50:32;14.23;;;3.30;;
40669;SDS011;26355;45.528;9.234;2023-03-31T04:52:58;11.00;;;2.38;;
40669;SDS011;26355;45.528;9.234;2023-03-31T04:55:24;14.82;;;3.10;;
40669;SDS011;26355;45.528;9.234;2023-03-31T04:57:50;10.80;;;3.00;;
40669;SDS011;26355;45.528;9.234;2023-03-31T05:00:16;13.27;;;3.20;;
40669;SDS011;26355;45.528;9.234;2023-03-31T05:02:42;13.05;;;2.65;;
40669;SDS011;26355;45.528;9.234;2023-03-31T05:05:08;14.70;;;3.00;;
40669;SDS011;26355;45.528;9.234;2023-03-31T05:07:34;11.90;;;2.67;;
40669;SDS011;26355;45.528;9.234;2023-03-31T05:10:00;16.05;;;3.05;;
40669;SDS011;26355;45.528;9.234;2023-03-31T05:12:26;13.65;;;2.63;;
40669;SDS011;26355;45.528;9.234;2023-03-31T05:14:51;15.25;;;3.17;;
40669;SDS011;26355;45.528;9.234;2023-03-31T05:17:17;15.25;;;2.70;;
40669;SDS011;26355;45.528;9.234;2023-03-31T05:19:43;22.02;;;3.22;;
40669;SDS011;26355;45.528;9.234;2023-03-31T05:22:08;13.68;;;2.72;;
40669;SDS011;26355;45.528;9.234;2023-03-31T05:24:34;11.93;;;2.63;;
40669;SDS011;26355;45.528;9.234;2023-03-31T05:27:00;12.88;;;2.63;;
40669;SDS011;26355;45.528;9.234;2023-03-31T05:29:26;14.88;;;2.85;;
40669;SDS011;26355;45.528;9.234;2023-03-31T05:31:52;13.73;;;2.92;;
40669;SDS011;26355;45.528;9.234;2023-03-31T05:37:02;11.95;;;3.00;;
40669;SDS011;26355;45.528;9.234;2023-03-31T05:39:27;14.38;;;2.72;;
40669;SDS011;26355;45.528;9.234;2023-03-31T05:41:57;15.85;;;2.70;;
40669;SDS011;26355;45.528;9.234;2023-03-31T05:44:23;13.35;;;3.28;;
40669;SDS011;26355;45.528;9.234;2023-03-31T05:46:50;21.15;;;4.28;;
40669;SDS011;26355;45.528;9.234;2023-03-31T05:49:16;14.75;;;3.03;;
40669;SDS011;26355;45.528;9.234;2023-03-31T05:51:41;16.33;;;3.15;;
40669;SDS011;26355;45.528;9.234;2023-03-31T05:54:07;16.48;;;3.58;;
40669;SDS011;26355;45.528;9.234;2023-03-31T05:56:33;18.13;;;3.53;;
40669;SDS011;26355;45.528;9.234;2023-03-31T05:58:59;14.57;;;3.35;;
40669;SDS011;26355;45.528;9.234;2023-03-31T06:01:25;13.63;;;3.20;;
40669;SDS011;26355;45.528;9.234;2023-03-31T06:03:51;10.93;;;2.20;;
40669;SDS011;26355;45.528;9.234;2023-03-31T06:06:17;13.98;;;2.72;;
40669;SDS011;26355;45.528;9.234;2023-03-31T06:08:43;13.05;;;2.88;;
40669;SDS011;26355;45.528;9.234;2023-03-31T06:11:12;17.20;;;2.83;;
40669;SDS011;26355;45.528;9.234;2023-03-31T06:13:40;15.55;;;3.20;;
40669;SDS011;26355;45.528;9.234;2023-03-31T06:16:06;13.45;;;2.60;;
40669;SDS011;26355;45.528;9.234;2023-03-31T06:20:59;14.52;;;3.17;;
40669;SDS011;26355;45.528;9.234;2023-03-31T06:23:25;17.92;;;3.10;;
40669;SDS011;26355;45.528;9.234;2023-03-31T06:25:51;15.07;;;3.00;;
40669;SDS011;26355;45.528;9.234;2023-03-31T06:28:17;19.88;;;3.63;;
40669;SDS011;26355;45.528;9.234;2023-03-31T06:30:43;14.10;;;3.30;;
40669;SDS011;26355;45.528;9.234;2023-03-31T06:33:09;14.05;;;3.40;;
40669;SDS011;26355;45.528;9.234;2023-03-31T06:35:38;16.45;;;3.33;;
40669;SDS011;26355;45.528;9.234;2023-03-31T06:38:05;17.17;;;3.40;;
40669;SDS011;26355;45.528;9.234;2023-03-31T06:40:31;18.30;;;3.28;;
40669;SDS011;26355;45.528;9.234;2023-03-31T06:42:57;18.52;;;3.50;;
40669;SDS011;26355;45.528;9.234;2023-03-31T06:45:23;13.95;;;2.50;;
40669;SDS011;26355;45.528;9.234;2023-03-31T06:47:49;14.85;;;2.60;;
40669;SDS011;26355;45.528;9.234;2023-03-31T06:50:15;12.73;;;2.67;;
40669;SDS011;26355;45.528;9.234;2023-03-31T06:52:41;17.77;;;3.65;;
40669;SDS011;26355;45.528;9.234;2023-03-31T06:55:06;13.13;;;2.85;;
40669;SDS011;26355;45.528;9.234;2023-03-31T06:57:33;15.07;;;3.20;;
40669;SDS011;26355;45.528;9.234;2023-03-31T06:59:59;16.48;;;3.53;;
40669;SDS011;26355;45.528;9.234;2023-03-31T07:02:25;13.98;;;3.45;;
40669;SDS011;26355;45.528;9.234;2023-03-31T07:04:51;15.60;;;3.50;;
40669;SDS011;26355;45.528;9.234;2023-03-31T07:07:16;15.25;;;3.10;;
40669;SDS011;26355;45.528;9.234;2023-03-31T07:09:42;14.55;;;2.60;;
40669;SDS011;26355;45.528;9.234;2023-03-31T07:12:08;16.25;;;3.40;;
40669;SDS011;26355;45.528;9.234;2023-03-31T07:14:34;16.45;;;2.78;;
40669;SDS011;26355;45.528;9.234;2023-03-31T07:17:00;16.65;;;3.42;;
40669;SDS011;26355;45.528;9.234;2023-03-31T07:19:26;16.77;;;3.72;;
40669;SDS011;26355;45.528;9.234;2023-03-31T07:21:51;19.27;;;3.47;;
40669;SDS011;26355;45.528;9.234;2023-03-31T07:24:17;12.80;;;2.83;;
40669;SDS011;26355;45.528;9.234;2023-03-31T07:26:43;12.38;;;3.05;;
40669;SDS011;26355;45.528;9.234;2023-03-31T07:29:09;14.35;;;3.63;;
40669;SDS011;26355;45.528;9.234;2023-03-31T07:31:34;17.70;;;3.92;;
40669;SDS011;26355;45.528;9.234;2023-03-31T07:34:01;14.07;;;3.08;;
40669;SDS011;26355;45.528;9.234;2023-03-31T07:36:27;20.98;;;4.70;;
40669;SDS011;26355;45.528;9.234;2023-03-31T07:38:53;15.65;;;4.03;;
40669;SDS011;26355;45.528;9.234;2023-03-31T07:41:20;14.48;;;3.40;;
40669;SDS011;26355;45.528;9.234;2023-03-31T07:43:46;17.42;;;3.78;;
40669;SDS011;26355;45.528;9.234;2023-03-31T07:46:13;17.23;;;3.65;;
40669;SDS011;26355;45.528;9.234;2023-03-31T07:48:43;17.75;;;4.35;;
40669;SDS011;26355;45.528;9.234;2023-03-31T07:51:10;15.70;;;3.58;;
40669;SDS011;26355;45.528;9.234;2023-03-31T07:53:37;20.67;;;3.70;;
40669;SDS011;26355;45.528;9.234;2023-03-31T07:56:03;18.80;;;3.92;;
40669;SDS011;26355;45.528;9.234;2023-03-31T07:58:29;15.05;;;3.85;;
40669;SDS011;26355;45.528;9.234;2023-03-31T08:00:54;18.55;;;4.13;;
40669;SDS011;26355;45.528;9.234;2023-03-31T08:03:20;14.50;;;3.60;;
40669;SDS011;26355;45.528;9.234;2023-03-31T08:05:46;20.48;;;4.55;;
40669;SDS011;26355;45.528;9.234;2023-03-31T08:08:11;13.68;;;3.28;;
40669;SDS011;26355;45.528;9.234;2023-03-31T08:10:37;18.25;;;4.07;;
40669;SDS011;26355;45.528;9.234;2023-03-31T08:13:03;15.52;;;3.60;;
40669;SDS011;26355;45.528;9.234;2023-03-31T08:15:28;16.02;;;4.00;;
40669;SDS011;26355;45.528;9.234;2023-03-31T08:17:54;18.83;;;4.75;;
40669;SDS011;26355;45.528;9.234;2023-03-31T08:20:19;19.88;;;4.57;;
40669;SDS011;26355;45.528;9.234;2023-03-31T08:22:45;16.08;;;3.95;;
40669;SDS011;26355;45.528;9.234;2023-03-31T08:25:11;18.98;;;4.28;;
40669;SDS011;26355;45.528;9.234;2023-03-31T08:27:37;20.63;;;4.75;;
40669;SDS011;26355;45.528;9.234;2023-03-31T08:30:05;17.40;;;4.22;;
40669;SDS011;26355;45.528;9.234;2023-03-31T08:32:32;15.80;;;3.97;;
40669;SDS011;26355;45.528;9.234;2023-03-31T08:34:59;20.45;;;4.80;;
40669;SDS011;26355;45.528;9.234;2023-03-31T08:37:25;13.63;;;4.25;;
40669;SDS011;26355;45.528;9.234;2023-03-31T08:39:52;15.90;;;4.15;;
40669;SDS011;26355;45.528;9.234;2023-03-31T08:45:20;19.55;;;4.97;;
40669;SDS011;26355;45.528;9.234;2023-03-31T08:47:49;19.80;;;5.10;;
40669;SDS011;26355;45.528;9.234;2023-03-31T08:50:20;20.80;;;5.47;;
40669;SDS011;26355;45.528;9.234;2023-03-31T08:53:36;16.48;;;4.10;;
40669;SDS011;26355;45.528;9.234;2023-03-31T08:55:47;16.03;;;4.77;;
40669;SDS011;26355;45.528;9.234;2023-03-31T08:58:34;16.75;;;4.70;;
40669;SDS011;26355;45.528;9.234;2023-03-31T09:01:12;18.20;;;5.00;;
40669;SDS011;26355;45.528;9.234;2023-03-31T09:10:15;19.23;;;5.38;;
40669;SDS011;26355;45.528;9.234;2023-03-31T09:12:22;18.17;;;5.13;;
40669;SDS011;26355;45.528;9.234;2023-03-31T09:15:00;21.15;;;5.55;;
40669;SDS011;26355;45.528;9.234;2023-03-31T09:17:33;18.10;;;5.15;;
40669;SDS011;26355;45.528;9.234;2023-03-31T09:22:51;18.83;;;5.28;;
40669;SDS011;26355;45.528;9.234;2023-03-31T09:25:32;18.30;;;4.68;;
40669;SDS011;26355;45.528;9.234;2023-03-31T09:28:02;14.88;;;4.32;;
40669;SDS011;26355;45.528;9.234;2023-03-31T09:30:31;17.63;;;4.32;;
40669;SDS011;26355;45.528;9.234;2023-03-31T09:33:08;13.32;;;4.30;;
40669;SDS011;26355;45.528;9.234;2023-03-31T09:35:37;16.67;;;4.65;;
40669;SDS011;26355;45.528;9.234;2023-03-31T09:38:03;13.18;;;3.78;;
40669;SDS011;26355;45.528;9.234;2023-03-31T09:40:29;13.88;;;3.63;;
40669;SDS011;26355;45.528;9.234;2023-03-31T09:43:07;12.88;;;3.10;;
40669;SDS011;26355;45.528;9.234;2023-03-31T09:45:45;13.15;;;3.38;;
40669;SDS011;26355;45.528;9.234;2023-03-31T09:48:12;15.63;;;3.30;;
40669;SDS011;26355;45.528;9.234;2023-03-31T09:50:44;16.67;;;4.25;;
40669;SDS011;26355;45.528;9.234;2023-03-31T09:53:30;17.27;;;3.92;;
40669;SDS011;26355;45.528;9.234;2023-03-31T09:56:03;16.55;;;4.38;;
40669;SDS011;26355;45.528;9.234;2023-03-31T09:58:33;16.65;;;4.18;;
40669;SDS011;26355;45.528;9.234;2023-03-31T10:01:09;15.00;;;4.28;;
40669;SDS011;26355;45.528;9.234;2023-03-31T10:04:00;16.10;;;4.10;;
40669;SDS011;26355;45.528;9.234;2023-03-31T10:06:29;18.92;;;4.53;;
40669;SDS011;26355;45.528;9.234;2023-03-31T10:08:58;19.50;;;4.32;;
40669;SDS011;26355;45.528;9.234;2023-03-31T10:11:29;19.00;;;4.78;;
40669;SDS011;26355;45.528;9.234;2023-03-31T10:14:02;16.17;;;3.83;;
40669;SDS011;26355;45.528;9.234;2023-03-31T10:16:52;17.38;;;3.65;;
40669;SDS011;26355;45.528;9.234;2023-03-31T10:21:57;20.92;;;4.43;;
40669;SDS011;26355;45.528;9.234;2023-03-31T10:24:36;17.77;;;4.20;;
40669;SDS011;26355;45.528;9.234;2023-03-31T10:27:04;19.08;;;3.70;;
40669;SDS011;26355;45.528;9.234;2023-03-31T10:29:31;21.65;;;5.13;;
40669;SDS011;26355;45.528;9.234;2023-03-31T10:32:08;17.27;;;4.68;;
40669;SDS011;26355;45.528;9.234;2023-03-31T10:34:49;17.27;;;3.92;;
40669;SDS011;26355;45.528;9.234;2023-03-31T10:37:16;16.45;;;4.60;;
40669;SDS011;26355;45.528;9.234;2023-03-31T10:39:46;15.77;;;4.60;;
40669;SDS011;26355;45.528;9.234;2023-03-31T10:42:19;14.18;;;4.35;;
40669;SDS011;26355;45.528;9.234;2023-03-31T10:44:46;18.33;;;4.35;;
40669;SDS011;26355;45.528;9.234;2023-03-31T10:49:38;18.45;;;4.07;;
40669;SDS011;26355;45.528;9.234;2023-03-31T10:54:45;17.30;;;3.90;;
40669;SDS011;26355;45.528;9.234;2023-03-31T10:57:11;18.52;;;4.68;;
40669;SDS011;26355;45.528;9.234;2023-03-31T11:05:31;14.80;;;4.50;;
40669;SDS011;26355;45.528;9.234;2023-03-31T11:13:37;20.27;;;4.40;;
40669;SDS011;26355;45.528;9.234;2023-03-31T11:25:21;19.13;;;4.40;;
40669;SDS011;26355;45.528;9.234;2023-03-31T11:30:49;17.75;;;4.95;;
40669;SDS011;26355;45.528;9.234;2023-03-31T11:44:13;19.90;;;5.05;;
40669;SDS011;26355;45.528;9.234;2023-03-31T11:49:18;18.30;;;5.68;;
40669;SDS011;26355;45.528;9.234;2023-03-31T11:52:06;15.43;;;4.55;;
40669;SDS011;26355;45.528;9.234;2023-03-31T11:54:45;20.48;;;4.45;;
40669;SDS011;26355;45.528;9.234;2023-03-31T11:57:18;16.75;;;4.53;;
40669;SDS011;26355;45.528;9.234;2023-03-31T11:59:53;18.83;;;5.35;;
40669;SDS011;26355;45.528;9.234;2023-03-31T12:05:17;20.45;;;4.80;;
40669;SDS011;26355;45.528;9.234;2023-03-31T12:07:47;15.82;;;4.95;;
40669;SDS011;26355;45.528;9.234;2023-03-31T12:10:19;22.13;;;5.65;;
40669;SDS011;26355;45.528;9.234;2023-03-31T12:12:57;16.95;;;4.43;;
40669;SDS011;26355;45.528;9.234;2023-03-31T12:15:44;19.08;;;4.75;;
40669;SDS011;26355;45.528;9.234;2023-03-31T12:18:19;20.38;;;5.45;;
40669;SDS011;26355;45.528;9.234;2023-03-31T12:20:52;22.15;;;5.75;;
40669;SDS011;26355;45.528;9.234;2023-03-31T12:23:25;18.80;;;5.45;;
40669;SDS011;26355;45.528;9.234;2023-03-31T12:28:21;17.48;;;5.65;;
40669;SDS011;26355;45.528;9.234;2023-03-31T12:30:48;21.05;;;5.18;;
40669;SDS011;26355;45.528;9.234;2023-03-31T12:33:19;16.13;;;5.38;;
40669;SDS011;26355;45.528;9.234;2023-03-31T12:41:22;20.42;;;5.28;;
40669;SDS011;26355;45.528;9.234;2023-03-31T12:49:22;25.27;;;6.35;;
40669;SDS011;26355;45.528;9.234;2023-03-31T12:52:05;18.67;;;5.60;;
40669;SDS011;26355;45.528;9.234;2023-03-31T12:57:20;18.60;;;4.70;;
40669;SDS011;26355;45.528;9.234;2023-03-31T13:02:38;20.27;;;4.88;;
40669;SDS011;26355;45.528;9.234;2023-03-31T13:08:04;19.48;;;5.28;;
40669;SDS011;26355;45.528;9.234;2023-03-31T13:10:32;17.90;;;4.82;;
40669;SDS011;26355;45.528;9.234;2023-03-31T13:13:19;22.10;;;5.00;;
40669;SDS011;26355;45.528;9.234;2023-03-31T13:15:54;18.65;;;4.93;;
40669;SDS011;26355;45.528;9.234;2023-03-31T13:18:22;19.92;;;4.60;;
40669;SDS011;26355;45.528;9.234;2023-03-31T13:21:01;18.88;;;5.18;;
40669;SDS011;26355;45.528;9.234;2023-03-31T13:23:30;19.95;;;5.82;;
40669;SDS011;26355;45.528;9.234;2023-03-31T13:25:59;18.67;;;5.00;;
40669;SDS011;26355;45.528;9.234;2023-03-31T13:28:26;18.73;;;5.18;;
40669;SDS011;26355;45.528;9.234;2023-03-31T13:45:12;18.55;;;5.57;;
40669;SDS011;26355;45.528;9.234;2023-03-31T14:02:26;16.63;;;4.80;;
40669;SDS011;26355;45.528;9.234;2023-03-31T14:07:58;19.80;;;5.60;;
40669;SDS011;26355;45.528;9.234;2023-03-31T14:13:32;20.58;;;5.22;;
40669;SDS011;26355;45.528;9.234;2023-03-31T14:15:57;18.08;;;4.85;;
40669;SDS011;26355;45.528;9.234;2023-03-31T14:27:03;19.83;;;4.95;;
40669;SDS011;26355;45.528;9.234;2023-03-31T14:29:42;17.38;;;4.85;;
40669;SDS011;26355;45.528;9.234;2023-03-31T14:32:38;15.00;;;4.68;;
40669;SDS011;26355;45.528;9.234;2023-03-31T14:38:04;21.25;;;5.95;;
40669;SDS011;26355;45.528;9.234;2023-03-31T14:40:36;17.80;;;5.38;;
40669;SDS011;26355;45.528;9.234;2023-03-31T14:43:20;20.98;;;5.45;;
40669;SDS011;26355;45.528;9.234;2023-03-31T14:45:59;17.75;;;5.88;;
40669;SDS011;26355;45.528;9.234;2023-03-31T14:48:26;19.48;;;5.35;;
40669;SDS011;26355;45.528;9.234;2023-03-31T14:53:22;18.77;;;4.82;;
40669;SDS011;26355;45.528;9.234;2023-03-31T14:55:49;20.00;;;5.53;;
40669;SDS011;26355;45.528;9.234;2023-03-31T14:58:24;19.52;;;5.20;;
40669;SDS011;26355;45.528;9.234;2023-03-31T15:00:52;18.58;;;5.50;;
40669;SDS011;26355;45.528;9.234;2023-03-31T15:03:18;21.02;;;5.13;;
40669;SDS011;26355;45.528;9.234;2023-03-31T15:05:44;17.77;;;4.82;;
40669;SDS011;26355;45.528;9.234;2023-03-31T15:08:14;20.13;;;5.43;;
40669;SDS011;26355;45.528;9.234;2023-03-31T15:10:50;17.15;;;5.20;;
40669;SDS011;26355;45.528;9.234;2023-03-31T15:13:30;20.50;;;5.43;;
40669;SDS011;26355;45.528;9.234;2023-03-31T15:15:59;19.30;;;5.57;;
40669;SDS011;26355;45.528;9.234;2023-03-31T15:18:42;18.77;;;5.18;;
40669;SDS011;26355;45.528;9.234;2023-03-31T15:21:09;19.80;;;5.00;;
40669;SDS011;26355;45.528;9.234;2023-03-31T15:23:45;22.10;;;5.07;;
40669;SDS011;26355;45.528;9.234;2023-03-31T15:26:10;19.65;;;5.82;;
40669;SDS011;26355;45.528;9.234;2023-03-31T15:28:42;19.17;;;4.80;;
40669;SDS011;26355;45.528;9.234;2023-03-31T15:31:13;18.25;;;4.40;;
40669;SDS011;26355;45.528;9.234;2023-03-31T15:33:40;19.75;;;5.65;;
40669;SDS011;26355;45.528;9.234;2023-03-31T15:36:09;20.73;;;5.20;;
40669;SDS011;26355;45.528;9.234;2023-03-31T15:38:36;17.95;;;4.53;;
40669;SDS011;26355;45.528;9.234;2023-03-31T15:44:01;19.50;;;5.20;;
40669;SDS011;26355;45.528;9.234;2023-03-31T15:49:17;19.65;;;4.95;;
40669;SDS011;26355;45.528;9.234;2023-03-31T15:51:45;20.40;;;5.50;;
40669;SDS011;26355;45.528;9.234;2023-03-31T15:57:04;21.23;;;5.80;;
40669;SDS011;26355;45.528;9.234;2023-03-31T15:59:44;19.23;;;5.68;;
40669;SDS011;26355;45.528;9.234;2023-03-31T16:02:17;18.27;;;6.57;;
40669;SDS011;26355;45.528;9.234;2023-03-31T16:04:49;17.88;;;6.50;;
40669;SDS011;26355;45.528;9.234;2023-03-31T16:07:21;20.00;;;6.78;;
40669;SDS011;26355;45.528;9.234;2023-03-31T16:09:56;22.23;;;7.25;;
40669;SDS011;26355;45.528;9.234;2023-03-31T16:12:36;22.25;;;7.85;;
40669;SDS011;26355;45.528;9.234;2023-03-31T16:15:15;21.33;;;8.18;;
40669;SDS011;26355;45.528;9.234;2023-03-31T16:17:54;21.23;;;7.20;;
40669;SDS011;26355;45.528;9.234;2023-03-31T16:20:25;19.02;;;7.07;;
40669;SDS011;26355;45.528;9.234;2023-03-31T16:23:00;18.25;;;6.50;;
40669;SDS011;26355;45.528;9.234;2023-03-31T16:25:35;19.10;;;6.93;;
40669;SDS011;26355;45.528;9.234;2023-03-31T16:28:04;40.38;;;22.70;;
40669;SDS011;26355;45.528;9.234;2023-03-31T16:30:34;23.10;;;13.02;;
40669;SDS011;26355;45.528;9.234;2023-03-31T16:35:35;19.60;;;7.13;;
40669;SDS011;26355;45.528;9.234;2023-03-31T16:38:03;19.23;;;6.75;;
40669;SDS011;26355;45.528;9.234;2023-03-31T16:40:33;17.08;;;6.38;;
40669;SDS011;26355;45.528;9.234;2023-03-31T16:45:44;19.80;;;6.40;;
40669;SDS011;26355;45.528;9.234;2023-03-31T16:48:14;21.05;;;7.22;;
40669;SDS011;26355;45.528;9.234;2023-03-31T16:50:41;20.00;;;7.50;;
40669;SDS011;26355;45.528;9.234;2023-03-31T16:53:08;18.08;;;6.82;;
40669;SDS011;26355;45.528;9.234;2023-03-31T16:55:34;19.10;;;6.50;;
40669;SDS011;26355;45.528;9.234;2023-03-31T16:58:00;18.85;;;6.80;;
40669;SDS011;26355;45.528;9.234;2023-03-31T17:00:31;18.00;;;5.63;;
40669;SDS011;26355;45.528;9.234;2023-03-31T17:03:01;18.60;;;6.55;;
40669;SDS011;26355;45.528;9.234;2023-03-31T17:05:28;20.40;;;6.20;;
40669;SDS011;26355;45.528;9.234;2023-03-31T17:07:57;19.88;;;7.07;;
40669;SDS011;26355;45.528;9.234;2023-03-31T17:10:24;17.85;;;5.72;;
40669;SDS011;26355;45.528;9.234;2023-03-31T17:12:50;21.05;;;6.55;;
40669;SDS011;26355;45.528;9.234;2023-03-31T17:15:16;20.88;;;6.93;;
40669;SDS011;26355;45.528;9.234;2023-03-31T17:17:42;21.50;;;6.35;;
40669;SDS011;26355;45.528;9.234;2023-03-31T17:20:08;20.90;;;6.68;;
40669;SDS011;26355;45.528;9.234;2023-03-31T17:22:35;17.42;;;6.55;;
40669;SDS011;26355;45.528;9.234;2023-03-31T17:25:01;20.70;;;7.87;;
40669;SDS011;26355;45.528;9.234;2023-03-31T17:27:27;19.55;;;7.18;;
40669;SDS011;26355;45.528;9.234;2023-03-31T17:29:53;19.08;;;6.82;;
40669;SDS011;26355;45.528;9.234;2023-03-31T17:32:19;22.38;;;7.50;;
40669;SDS011;26355;45.528;9.234;2023-03-31T17:34:46;20.63;;;7.57;;
40669;SDS011;26355;45.528;9.234;2023-03-31T17:37:13;18.77;;;6.78;;
40669;SDS011;26355;45.528;9.234;2023-03-31T17:39:40;23.67;;;7.65;;
40669;SDS011;26355;45.528;9.234;2023-03-31T17:42:07;23.70;;;7.97;;
40669;SDS011;26355;45.528;9.234;2023-03-31T17:44:33;20.02;;;7.88;;
40669;SDS011;26355;45.528;9.234;2023-03-31T17:46:59;23.27;;;8.27;;
40669;SDS011;26355;45.528;9.234;2023-03-31T17:49:25;19.95;;;8.40;;
40669;SDS011;26355;45.528;9.234;2023-03-31T17:51:51;20.58;;;8.32;;
40669;SDS011;26355;45.528;9.234;2023-03-31T17:54:17;23.60;;;8.90;;
40669;SDS011;26355;45.528;9.234;2023-03-31T17:56:43;22.05;;;8.40;;
40669;SDS011;26355;45.528;9.234;2023-03-31T17:59:09;21.67;;;8.27;;
40669;SDS011;26355;45.528;9.234;2023-03-31T18:01:35;25.90;;;8.85;;
40669;SDS011;26355;45.528;9.234;2023-03-31T18:04:01;20.77;;;8.32;;
40669;SDS011;26355;45.528;9.234;2023-03-31T18:06:27;19.85;;;7.95;;
40669;SDS011;26355;45.528;9.234;2023-03-31T18:08:54;19.23;;;7.95;;
40669;SDS011;26355;45.528;9.234;2023-03-31T18:11:21;21.38;;;8.60;;
40669;SDS011;26355;45.528;9.234;2023-03-31T18:13:49;21.48;;;8.80;;
40669;SDS011;26355;45.528;9.234;2023-03-31T18:16:15;22.15;;;9.07;;